Terminal Aerodrome Forecast
Issued by NWS Jackson, KY

Home | Current Version | Previous Version | Text Only | Print | Product List | Glossary On
Versions: 1 2 3 4 5 6 7 8 9 10 11 12 13 14 15 16 17 18 19
429
FTUS43 KJKL 012320
TAFJKL
TAF
KJKL 012320Z 0200/0224 VRB03KT P6SM VCTS BKN050CB
     FM020200 VRB03KT P6SM VCTS BKN050CB
     FM020900 VRB03KT 4SM BR BKN015
     FM021200 00000KT 3SM SHRA BKN008
     FM021400 VRB03KT P6SM SHRA BKN045
     FM022200 00000KT 3SM SHRA OVC035=

USA.gov is the U.S. government's official web portal to all federal, state and local government web resources and services.